createdAt,value
2023-04-28T00:02:31.896Z,10.60
2023-04-28T00:07:33.764Z,10.60
2023-04-28T00:12:35.599Z,10.60
2023-04-28T00:17:37.455Z,12.20
2023-04-28T00:22:39.268Z,10.70
2023-04-28T00:27:41.037Z,10.70
2023-04-28T00:32:42.817Z,10.70
2023-04-28T00:37:44.930Z,10.70
2023-04-28T00:42:46.786Z,10.60
2023-04-28T00:47:48.612Z,10.60
2023-04-28T00:52:52.394Z,10.70
2023-04-28T00:57:56.368Z,10.70
2023-04-28T01:02:58.996Z,10.70
2023-04-28T01:08:01.012Z,10.80
2023-04-28T01:13:02.714Z,10.90
2023-04-28T01:18:04.818Z,11.00
2023-04-28T01:23:13.609Z,11.00
2023-04-28T01:28:15.452Z,10.90
2023-04-28T01:33:17.206Z,11.00
2023-04-28T01:38:19.012Z,11.00
2023-04-28T01:43:20.901Z,10.90
2023-04-28T01:48:22.651Z,10.90
2023-04-28T01:53:24.939Z,10.90
2023-04-28T01:58:26.800Z,10.80
2023-04-28T02:03:28.863Z,10.80
2023-04-28T02:08:30.828Z,10.80
2023-04-28T02:13:32.508Z,10.80
2023-04-28T02:18:36.006Z,10.70
2023-04-28T02:23:38.017Z,10.70
2023-04-28T02:28:39.774Z,10.70
2023-04-28T02:33:44.184Z,10.70
2023-04-28T02:38:45.830Z,10.70
2023-04-28T02:43:47.520Z,10.80
2023-04-28T02:48:49.255Z,10.90
2023-04-28T02:53:51.016Z,10.90
2023-04-28T02:58:52.995Z,10.90
2023-04-28T03:03:55.107Z,11.40
2023-04-28T03:08:57.023Z,11.00
2023-04-28T03:13:58.722Z,11.00
2023-04-28T03:19:00.809Z,10.90
2023-04-28T03:24:04.756Z,11.90
2023-04-28T03:29:07.182Z,11.10
2023-04-28T03:34:08.920Z,11.10
2023-04-28T03:39:10.801Z,11.10
2023-04-28T03:44:12.662Z,11.80
2023-04-28T03:49:14.646Z,11.10
2023-04-28T03:54:16.762Z,11.00
2023-04-28T03:59:18.773Z,11.10
2023-04-28T04:04:20.987Z,11.00
2023-04-28T04:09:23.329Z,11.10
2023-04-28T04:14:25.109Z,11.10
2023-04-28T04:19:27.541Z,11.20
2023-04-28T04:24:29.250Z,11.20
2023-04-28T04:29:31.670Z,11.00
2023-04-28T04:34:33.392Z,11.00
2023-04-28T04:39:35.252Z,11.10
2023-04-28T04:44:37.364Z,11.10
2023-04-28T04:49:41.908Z,11.20
2023-04-28T04:54:43.944Z,11.20
2023-04-28T04:59:46.108Z,11.30
2023-04-28T05:04:47.899Z,11.30
2023-04-28T05:09:49.757Z,11.30
2023-04-28T05:14:51.781Z,11.30
2023-04-28T05:19:53.526Z,11.40
2023-04-28T05:24:55.853Z,11.40
2023-04-28T05:29:57.735Z,11.60
2023-04-28T05:40:01.827Z,11.60
2023-04-28T05:45:04.048Z,11.60
2023-04-28T05:50:06.464Z,11.70
2023-04-28T05:55:08.565Z,11.70
2023-04-28T06:00:10.980Z,11.80
2023-04-28T06:05:13.249Z,11.80
2023-04-28T06:10:15.164Z,11.80
2023-04-28T06:15:17.041Z,12.40
2023-04-28T06:20:19.344Z,11.90
2023-04-28T06:25:21.433Z,11.90
2023-04-28T06:30:23.832Z,11.90
2023-04-28T06:35:25.785Z,11.90
2023-04-28T06:45:30.688Z,12.00
2023-04-28T06:50:32.469Z,11.90
2023-04-28T06:55:35.138Z,11.90
2023-04-28T07:00:37.123Z,12.10
2023-04-28T07:05:39.006Z,13.00
2023-04-28T07:10:40.700Z,12.30
2023-04-28T07:15:43.000Z,12.30
2023-04-28T07:20:44.751Z,12.40
2023-04-28T07:25:46.559Z,12.60
2023-04-28T07:30:48.340Z,12.50
2023-04-28T07:35:52.873Z,12.60
2023-04-28T07:40:55.262Z,12.70
2023-04-28T07:45:57.228Z,12.60
2023-04-28T07:50:58.985Z,12.60
2023-04-28T07:56:01.157Z,12.60
2023-04-28T08:01:03.241Z,12.60
2023-04-28T08:06:05.155Z,12.60
2023-04-28T08:11:07.816Z,12.50
2023-04-28T08:16:09.727Z,12.50
2023-04-28T08:21:11.727Z,12.50
2023-04-28T08:26:13.556Z,12.60
2023-04-28T08:31:15.675Z,12.80
2023-04-28T08:36:18.339Z,13.40
2023-04-28T08:41:21.756Z,12.90
2023-04-28T08:46:27.363Z,13.00
2023-04-28T08:51:40.877Z,13.30
2023-04-28T08:56:45.504Z,13.40
2023-04-28T09:01:49.676Z,13.50
2023-04-28T09:06:51.551Z,13.60
2023-04-28T09:11:59.575Z,13.80
2023-04-28T09:17:03.096Z,13.80
2023-04-28T09:22:21.789Z,13.80
2023-04-28T09:27:29.589Z,14.00
2023-04-28T09:32:31.813Z,14.00
2023-04-28T09:37:34.670Z,14.20
2023-04-28T09:42:44.222Z,14.20
2023-04-28T09:47:47.980Z,14.20
2023-04-28T09:52:59.624Z,14.20
2023-04-28T09:58:06.135Z,14.40
2023-04-28T10:03:10.692Z,14.40
2023-04-28T10:08:13.718Z,14.50
2023-04-28T10:13:17.531Z,14.40
2023-04-28T10:18:19.636Z,14.50
2023-04-28T10:23:27.606Z,14.50
2023-04-28T10:28:29.884Z,14.50
2023-04-28T10:33:32.336Z,14.50
2023-04-28T10:38:35.223Z,14.60
2023-04-28T10:43:40.221Z,14.60
2023-04-28T10:48:48.165Z,14.60
2023-04-28T10:53:51.288Z,14.60
2023-04-28T10:58:54.441Z,14.60
2023-04-28T11:04:04.814Z,14.60
2023-04-28T11:09:12.778Z,14.60
2023-04-28T11:14:18.391Z,14.70
2023-04-28T11:19:25.625Z,14.70
2023-04-28T11:24:29.337Z,14.70
2023-04-28T11:29:38.953Z,14.70
2023-04-28T11:34:41.130Z,14.70
2023-04-28T11:44:52.972Z,14.70
2023-04-28T11:49:54.733Z,14.60
2023-04-28T11:54:59.359Z,14.50
2023-04-28T12:00:14.996Z,14.90
2023-04-28T12:05:17.329Z,14.90
2023-04-28T12:10:19.909Z,15.30
2023-04-28T12:15:22.969Z,15.50
2023-04-28T12:20:35.831Z,15.70
2023-04-28T12:25:45.049Z,15.80
2023-04-28T12:30:47.151Z,15.40
2023-04-28T12:35:49.913Z,15.20
2023-04-28T12:40:52.528Z,15.20
2023-04-28T12:45:57.178Z,15.20
2023-04-28T12:50:59.094Z,15.20
2023-04-28T12:56:01.004Z,15.20
2023-04-28T13:01:03.021Z,15.00
2023-04-28T13:06:45.101Z,14.80
2023-04-28T13:11:47.380Z,14.80
2023-04-28T13:16:49.596Z,14.90
2023-04-28T13:21:52.266Z,15.10
2023-04-28T13:26:54.044Z,15.00
2023-04-28T13:31:56.316Z,14.90
2023-04-28T13:37:01.863Z,15.10
2023-04-28T13:42:04.033Z,15.10
2023-04-28T13:47:09.414Z,15.30
2023-04-28T13:52:14.757Z,15.20
2023-04-28T13:57:16.817Z,15.20
2023-04-28T14:02:23.114Z,15.60
2023-04-28T14:07:25.984Z,16.20
2023-04-28T14:17:57.619Z,15.80
2023-04-28T14:23:05.951Z,15.90
2023-04-28T14:28:17.234Z,15.90
2023-04-28T14:33:19.032Z,16.70
2023-04-28T14:38:25.523Z,16.80
2023-04-28T14:43:33.221Z,16.70
2023-04-28T14:48:45.365Z,16.70
2023-04-28T14:53:50.291Z,16.70
2023-04-28T15:03:55.183Z,16.80
2023-04-28T15:08:57.312Z,16.60
2023-04-28T15:13:59.634Z,16.60
2023-04-28T15:19:01.457Z,16.60
2023-04-28T15:24:04.132Z,18.80
2023-04-28T15:29:05.900Z,16.50
2023-04-28T15:34:07.892Z,16.50
2023-04-28T15:39:10.398Z,16.10
2023-04-28T15:44:12.280Z,16.10
2023-04-28T15:49:14.207Z,16.30
2023-04-28T15:54:16.110Z,16.60
2023-04-28T15:59:19.002Z,16.50
2023-04-28T16:04:21.054Z,16.40
2023-04-28T16:09:23.049Z,16.30
2023-04-28T16:14:25.059Z,16.20
2023-04-28T16:19:26.828Z,15.90
2023-04-28T16:24:28.919Z,15.80
2023-04-28T16:29:31.204Z,15.80
2023-04-28T16:34:33.216Z,15.80
2023-04-28T16:39:35.029Z,15.80
2023-04-28T16:44:37.041Z,15.80
2023-04-28T16:49:38.791Z,15.50
2023-04-28T16:54:40.864Z,15.30
2023-04-28T16:59:43.063Z,14.80
2023-04-28T17:04:45.033Z,14.60
2023-04-28T17:09:46.834Z,14.50
2023-04-28T17:14:50.551Z,14.30
2023-04-28T17:19:52.651Z,14.20
2023-04-28T17:24:54.536Z,14.00
2023-04-28T17:29:58.323Z,13.90
2023-04-28T17:35:00.185Z,14.10
2023-04-28T17:40:01.980Z,14.10
2023-04-28T17:45:04.849Z,14.20
2023-04-28T17:50:07.090Z,14.40
2023-04-28T17:55:09.008Z,14.30
2023-04-28T18:00:13.222Z,14.30
2023-04-28T18:05:17.315Z,14.20
2023-04-28T18:10:19.143Z,14.20
2023-04-28T18:15:21.119Z,14.00
2023-04-28T18:20:23.109Z,13.80
2023-04-28T18:25:24.973Z,13.70
2023-04-28T18:30:26.855Z,14.50
2023-04-28T18:35:28.609Z,13.50
2023-04-28T18:40:34.273Z,13.50
2023-04-28T18:45:40.956Z,13.60
2023-04-28T18:50:44.698Z,13.60
2023-04-28T18:55:46.536Z,13.60
2023-04-28T19:00:49.177Z,13.60
2023-04-28T19:05:55.984Z,13.60
2023-04-28T19:10:58.683Z,13.60
2023-04-28T19:16:01.053Z,13.60
2023-04-28T19:21:04.165Z,13.30
2023-04-28T19:26:06.151Z,13.30
2023-04-28T19:31:08.766Z,13.10
2023-04-28T19:36:10.752Z,13.10
2023-04-28T19:41:12.496Z,13.10
2023-04-28T19:46:15.187Z,13.10
2023-04-28T19:51:17.474Z,13.00
2023-04-28T19:56:20.509Z,12.90
2023-04-28T20:01:22.974Z,13.00
2023-04-28T20:06:24.703Z,13.00
2023-04-28T20:11:26.399Z,12.90
2023-04-28T20:16:28.289Z,12.80
2023-04-28T20:21:30.070Z,12.70
2023-04-28T20:26:32.363Z,12.60
2023-04-28T20:31:34.336Z,12.70
2023-04-28T20:36:36.140Z,12.70
2023-04-28T20:41:40.922Z,12.60
2023-04-28T20:46:44.952Z,12.70
2023-04-28T20:51:48.113Z,12.60
2023-04-28T20:56:49.886Z,12.60
2023-04-28T21:01:51.747Z,12.60
2023-04-28T21:06:53.570Z,12.60
2023-04-28T21:11:55.483Z,12.60
2023-04-28T21:16:57.258Z,12.50
2023-04-28T21:21:59.467Z,12.70
2023-04-28T21:27:02.904Z,12.60
2023-04-28T21:32:04.918Z,12.50
2023-04-28T21:37:06.624Z,12.60
2023-04-28T21:42:08.719Z,12.80
2023-04-28T21:47:10.512Z,12.80
2023-04-28T21:52:12.259Z,12.80
2023-04-28T21:57:15.815Z,12.80
2023-04-28T22:02:17.948Z,12.70
2023-04-28T22:07:20.189Z,11.20
2023-04-28T22:12:21.942Z,12.80
2023-04-28T22:17:23.699Z,12.70
2023-04-28T22:22:25.525Z,12.70
2023-04-28T22:27:27.690Z,12.60
2023-04-28T22:32:29.505Z,12.70
2023-04-28T22:37:31.279Z,12.80
2023-04-28T22:42:40.418Z,12.70
2023-04-28T22:47:42.876Z,12.60
2023-04-28T22:52:44.669Z,12.60
2023-04-28T22:57:46.479Z,12.60
2023-04-28T23:02:48.322Z,13.70
2023-04-28T23:07:50.171Z,12.50
2023-04-28T23:12:51.915Z,12.50
2023-04-28T23:17:53.719Z,12.40
2023-04-28T23:22:58.268Z,12.40
2023-04-28T23:28:00.039Z,12.40
2023-04-28T23:33:01.998Z,12.30
2023-04-28T23:38:03.942Z,12.30
2023-04-28T23:43:05.748Z,12.30
2023-04-28T23:48:08.159Z,12.30
2023-04-28T23:53:10.032Z,12.20
2023-04-28T23:58:11.937Z,12.40
